Time;durP1;ratioP1;P1;durP2;ratioP2;P2;SDS_P1;SDS_P2;PMS_P1;PMS_P2;Temp;Humidity;BMP_temperature;BMP_pressure;BME280_temperature;BME280_humidity;BME280_pressure;Samples;Min_cycle;Max_cycle;Signal;HPM_P1;HPM_P2
2022/03/29 00:01:38;;;;;;;;;;;;;;;21.85;38.86;101519.25;5070998;28;20395;-83
2022/03/29 00:04:03;;;;;;;;;;;;;;;21.85;38.68;101514.59;5055409;28;19921;-82
2022/03/29 00:06:28;;;;;;;;;;;;;;;21.85;38.86;101513.75;5055610;28;19921;-82
2022/03/29 00:08:53;;;;;;;;;;;;;;;21.83;38.84;101511.31;5055463;28;20037;-82
2022/03/29 00:11:19;;;;;;;;;;;;;;;21.82;38.61;101515.16;5055222;28;19921;-81
2022/03/29 00:13:45;;;;;;;;;;;;;;;21.81;38.74;101517.13;5055052;28;19921;-81
2022/03/29 00:16:10;;;;;;;;;;;;;;;21.81;38.61;101508.06;5055506;28;19924;-81
2022/03/29 00:18:35;;;;;;;;;;;;;;;21.81;38.60;101513.56;5070106;28;19967;-81
2022/03/29 00:21:00;;;;;;;;;;;;;;;21.80;38.68;101506.44;5070496;28;19928;-83
2022/03/29 00:23:26;;;;;;;;;;;;;;;21.80;38.43;101509.19;5054932;28;20270;-81
2022/03/29 00:25:51;;;;;;;;;;;;;;;21.79;38.57;101502.84;5070401;28;20310;-82
2022/03/29 00:28:16;;;;;;;;;;;;;;;21.80;38.41;101498.19;5054718;28;19927;-81
2022/03/29 00:30:41;;;;;;;;;;;;;;;21.78;38.58;101497.66;5069920;28;20438;-82
2022/03/29 00:33:07;;;;;;;;;;;;;;;21.78;38.77;101500.41;5070338;28;19921;-82
2022/03/29 00:35:32;;;;;;;;;;;;;;;21.77;38.48;101496.84;5054758;28;20381;-81
2022/03/29 00:37:58;;;;;;;;;;;;;;;21.77;38.76;101493.25;5054898;28;19932;-82
2022/03/29 00:40:23;;;;;;;;;;;;;;;21.77;38.76;101498.75;5053190;28;20006;-82
2022/03/29 00:42:49;;;;;;;;;;;;;;;21.77;38.51;101493.25;5036693;28;19917;-82
2022/03/29 00:45:14;;;;;;;;;;;;;;;21.76;38.43;101486.13;5054764;28;20237;-82
2022/03/29 00:47:39;;;;;;;;;;;;;;;21.76;38.64;101483.38;5070311;28;20279;-83
2022/03/29 00:50:05;;;;;;;;;;;;;;;21.75;38.43;101481.75;5036590;28;19956;-82
2022/03/29 00:52:31;;;;;;;;;;;;;;;21.75;38.76;101481.75;5070048;28;19920;-82
2022/03/29 00:54:57;;;;;;;;;;;;;;;21.75;38.68;101468.81;5036327;28;19927;-82
2022/03/29 00:57:22;;;;;;;;;;;;;;;21.73;38.53;101476.56;5036244;28;19928;-82
2022/03/29 00:59:47;;;;;;;;;;;;;;;21.73;38.57;101471.06;5052681;28;19928;-81
2022/03/29 01:02:13;;;;;;;;;;;;;;;21.73;38.73;101462.81;5053930;28;19917;-82
2022/03/29 01:04:38;;;;;;;;;;;;;;;21.72;38.67;101463.09;5054544;28;19921;-81
2022/03/29 01:07:04;;;;;;;;;;;;;;;21.72;38.53;101460.34;5053195;28;19921;-82
2022/03/29 01:09:30;;;;;;;;;;;;;;;21.71;38.77;101451.28;5054217;28;19939;-80
2022/03/29 01:11:56;;;;;;;;;;;;;;;21.72;38.45;101452.09;5054003;28;19947;-81
2022/03/29 01:14:22;;;;;;;;;;;;;;;21.71;38.72;101454.03;5053812;28;20349;-81
2022/03/29 01:19:31;;;;;;;;;;;;;;;21.69;38.56;101448.00;5053920;28;19927;-82
2022/03/29 01:22:01;;;;;;;;;;;;;;;21.69;38.52;101448.00;5053870;28;20324;-81
2022/03/29 01:24:27;;;;;;;;;;;;;;;21.69;38.43;101450.75;5036082;28;20007;-81
2022/03/29 01:26:53;;;;;;;;;;;;;;;21.69;38.53;101441.69;5053837;28;19967;-81
2022/03/29 01:29:20;;;;;;;;;;;;;;;21.69;38.50;101436.19;5053871;28;19967;-82
2022/03/29 01:31:45;;;;;;;;;;;;;;;21.68;38.59;101429.91;5053716;28;19990;-84
2022/03/29 01:34:10;;;;;;;;;;;;;;;21.67;38.60;101435.69;5035849;28;20360;-82
2022/03/29 01:36:36;;;;;;;;;;;;;;;21.67;38.68;101447.53;5035636;28;19928;-81
2022/03/29 01:39:02;;;;;;;;;;;;;;;21.66;38.51;101440.38;5068882;28;19927;-82
2022/03/29 01:41:28;;;;;;;;;;;;;;;21.66;38.75;101436.81;5054311;28;20004;-81
2022/03/29 01:43:53;;;;;;;;;;;;;;;21.66;38.67;101434.06;5069480;28;19960;-82
2022/03/29 01:46:18;;;;;;;;;;;;;;;21.66;38.42;101434.88;5053770;28;19962;-81
2022/03/29 01:48:44;;;;;;;;;;;;;;;21.66;38.71;101434.06;5053952;28;19924;-82
2022/03/29 01:51:12;;;;;;;;;;;;;;;21.65;38.81;101426.94;5053160;28;19924;-82
2022/03/29 01:53:38;;;;;;;;;;;;;;;21.65;38.67;101424.19;5053355;28;19931;-82
2022/03/29 01:56:03;;;;;;;;;;;;;;;21.64;38.79;101426.09;5037137;28;19943;-82
2022/03/29 01:58:31;;;;;;;;;;;;;;;21.63;38.65;101429.97;5058000;28;20387;-82
2022/03/29 02:00:57;;;;;;;;;;;;;;;21.64;38.78;101422.53;5073289;28;19968;-82
2022/03/29 02:03:22;;;;;;;;;;;;;;;21.64;38.63;101411.53;5056352;28;19960;-82
2022/03/29 02:05:48;;;;;;;;;;;;;;;21.62;38.69;101406.38;5058085;28;19921;-82
2022/03/29 02:08:14;;;;;;;;;;;;;;;21.63;38.75;101404.44;5056304;28;19936;-83
2022/03/29 02:10:40;;;;;;;;;;;;;;;21.62;38.71;101398.13;5039502;28;19916;-81
2022/03/29 02:13:09;;;;;;;;;;;;;;;21.61;38.42;101397.28;5072877;28;20023;-82
2022/03/29 02:15:34;;;;;;;;;;;;;;;21.61;38.75;101402.78;5057408;28;19917;-81
2022/03/29 02:17:59;;;;;;;;;;;;;;;21.61;38.37;101390.97;5057105;28;19916;-81
2022/03/29 02:20:26;;;;;;;;;;;;;;;21.60;38.43;101390.16;5056813;28;19971;-82
2022/03/29 02:22:51;;;;;;;;;;;;;;;21.61;38.70;101388.22;5057149;28;19924;-82
2022/03/29 02:25:16;;;;;;;;;;;;;;;21.60;38.47;101390.16;5057522;28;20357;-82
2022/03/29 02:27:43;;;;;;;;;;;;;;;21.60;38.59;101381.91;5039370;28;20381;-82
2022/03/29 02:30:10;;;;;;;;;;;;;;;21.60;38.34;101378.34;5038912;28;19927;-82
2022/03/29 02:32:35;;;;;;;;;;;;;;;21.58;38.64;101367.66;5039201;28;19924;-82
2022/03/29 02:35:01;;;;;;;;;;;;;;;21.59;38.35;101371.22;5056743;28;19916;-82
2022/03/29 02:37:26;;;;;;;;;;;;;;;21.59;38.38;101366.53;5039214;28;19931;-82
2022/03/29 02:39:51;;;;;;;;;;;;;;;21.58;38.58;101362.16;5039161;28;20000;-82
2022/03/29 02:42:16;;;;;;;;;;;;;;;21.59;38.71;101360.22;5056888;28;19921;-82
2022/03/29 02:44:42;;;;;;;;;;;;;;;21.59;38.39;101354.72;5039719;28;19921;-82
2022/03/29 02:47:07;;;;;;;;;;;;;;;21.58;38.42;101351.16;5056931;28;19933;-81
2022/03/29 02:49:32;;;;;;;;;;;;;;;21.58;38.38;101353.91;5056681;28;20380;-82
2022/03/29 02:51:58;;;;;;;;;;;;;;;21.58;38.36;101350.34;5055484;28;19947;-82
2022/03/29 02:54:23;;;;;;;;;;;;;;;21.57;38.54;101343.19;5056570;28;20019;-82
2022/03/29 02:56:50;;;;;;;;;;;;;;;21.57;38.47;101338.53;5056937;28;20380;-82
2022/03/29 02:59:15;;;;;;;;;;;;;;;21.56;38.35;101339.63;5072319;28;20312;-82
2022/03/29 03:01:40;;;;;;;;;;;;;;;21.57;38.40;101334.94;5072397;28;19921;-82
2022/03/29 03:04:07;;;;;;;;;;;;;;;21.57;38.57;101340.44;5056355;28;19968;-82
2022/03/29 03:06:32;;;;;;;;;;;;;;;21.57;38.60;101337.69;5056486;28;19924;-82
2022/03/29 03:08:58;;;;;;;;;;;;;;;21.57;38.47;101337.69;5070729;28;19921;-82
2022/03/29 03:11:23;;;;;;;;;;;;;;;21.57;38.57;101332.19;5038309;28;19974;-82
2022/03/29 03:13:48;;;;;;;;;;;;;;;21.56;38.65;101333.34;5071677;28;20015;-82
2022/03/29 03:16:13;;;;;;;;;;;;;;;21.56;38.31;101322.34;5071948;28;20320;-82
2022/03/29 03:18:39;;;;;;;;;;;;;;;21.55;38.35;101316.03;5071519;28;19920;-82
2022/03/29 03:21:04;;;;;;;;;;;;;;;21.56;38.41;101319.59;5071389;28;19921;-82
2022/03/29 03:23:30;;;;;;;;;;;;;;;21.56;38.66;101316.84;5056127;28;20383;-82
2022/03/29 03:25:55;;;;;;;;;;;;;;;21.54;38.51;101314.38;5071633;28;19971;-83
2022/03/29 03:28:20;;;;;;;;;;;;;;;21.55;38.53;101315.22;5038153;28;19960;-82
2022/03/29 03:30:46;;;;;;;;;;;;;;;21.55;38.65;101312.47;5056013;28;20365;-82
2022/03/29 03:33:11;;;;;;;;;;;;;;;21.54;38.29;101317.13;5055491;28;19921;-82
2022/03/29 03:35:36;;;;;;;;;;;;;;;21.54;38.55;101308.88;5055691;28;19967;-82
2022/03/29 03:38:02;;;;;;;;;;;;;;;21.55;38.55;101310.53;5054651;28;19965;-82
2022/03/29 03:40:27;;;;;;;;;;;;;;;21.54;38.31;101306.13;5071410;28;19928;-82
2022/03/29 03:42:52;;;;;;;;;;;;;;;21.55;38.80;101306.97;5055783;28;19974;-82
2022/03/29 03:45:17;;;;;;;;;;;;;;;21.54;38.38;101297.09;5055853;28;20060;-81
2022/03/29 03:47:42;;;;;;;;;;;;;;;21.53;38.72;101307.28;5054641;28;19921;-82
2022/03/29 03:50:08;;;;;;;;;;;;;;;21.53;38.41;101295.47;5055440;28;20289;-82
2022/03/29 03:52:34;;;;;;;;;;;;;;;21.53;38.48;101307.28;5055798;28;20026;-82
2022/03/29 03:54:59;;;;;;;;;;;;;;;21.53;38.37;101298.22;5071382;28;19921;-82
2022/03/29 03:57:24;;;;;;;;;;;;;;;21.52;38.55;101297.41;5055286;28;19975;-82
2022/03/29 03:59:51;;;;;;;;;;;;;;;21.52;38.64;101291.06;5055324;28;19921;-82
2022/03/29 04:02:17;;;;;;;;;;;;;;;21.52;38.62;101296.56;5037511;28;19928;-83
2022/03/29 04:04:42;;;;;;;;;;;;;;;21.51;38.62;101282.00;5037059;28;19917;-83
2022/03/29 04:07:08;;;;;;;;;;;;;;;21.51;38.49;101276.50;5055139;28;19917;-82
2022/03/29 04:09:38;;;;;;;;;;;;;;;21.51;38.51;101271.00;5054955;28;19960;-82
2022/03/29 04:12:03;;;;;;;;;;;;;;;21.51;38.41;101268.25;5070011;28;19921;-82
2022/03/29 04:14:29;;;;;;;;;;;;;;;21.50;38.33;101263.91;5070463;28;19975;-83
2022/03/29 04:16:54;;;;;;;;;;;;;;;21.51;38.50;101267.47;5053825;28;19987;-82
2022/03/29 04:19:19;;;;;;;;;;;;;;;21.49;38.43;101256.75;5054713;28;19932;-82
2022/03/29 04:21:45;;;;;;;;;;;;;;;21.49;38.33;101258.69;5037091;28;19999;-82
2022/03/29 04:24:10;;;;;;;;;;;;;;;21.49;38.53;101250.44;5054968;28;20398;-83
2022/03/29 04:26:35;;;;;;;;;;;;;;;21.49;38.32;101250.44;5036674;28;20004;-81
2022/03/29 04:29:00;;;;;;;;;;;;;;;21.48;38.61;101246.88;5037103;28;19917;-83
2022/03/29 04:31:26;;;;;;;;;;;;;;;21.48;38.37;101246.88;5036909;28;20419;-82
2022/03/29 04:33:51;;;;;;;;;;;;;;;21.48;38.45;101241.41;5054452;28;19921;-82
2022/03/29 04:36:16;;;;;;;;;;;;;;;21.48;38.50;101246.88;5054670;28;19925;-82
2022/03/29 04:38:42;;;;;;;;;;;;;;;21.47;38.53;101242.53;5036941;28;19954;-82
2022/03/29 04:41:07;;;;;;;;;;;;;;;21.47;38.59;101238.94;5036623;28;19924;-82
2022/03/29 04:43:32;;;;;;;;;;;;;;;21.47;38.45;101239.78;5055162;28;20011;-82
2022/03/29 04:45:58;;;;;;;;;;;;;;;21.48;38.63;101240.59;5054436;28;20419;-82
2022/03/29 04:48:23;;;;;;;;;;;;;;;21.47;38.35;101239.78;5053431;28;19924;-82
2022/03/29 04:50:48;;;;;;;;;;;;;;;21.47;38.62;101242.53;5036654;28;19921;-83
2022/03/29 04:53:14;;;;;;;;;;;;;;;21.46;38.57;101240.88;5054317;28;19921;-83
2022/03/29 04:55:39;;;;;;;;;;;;;;;21.46;38.54;101237.31;5054013;28;19944;-81
2022/03/29 04:58:04;;;;;;;;;;;;;;;21.45;38.47;101236.50;5070389;28;19921;-84
2022/03/29 05:00:29;;;;;;;;;;;;;;;21.45;38.55;101232.97;5054423;28;20257;-82
2022/03/29 05:02:55;;;;;;;;;;;;;;;21.45;38.59;101232.97;5036379;28;20280;-82
2022/03/29 05:05:20;;;;;;;;;;;;;;;21.45;38.29;101236.50;5054083;28;20391;-82
2022/03/29 05:07:46;;;;;;;;;;;;;;;21.46;38.51;101234.56;5069555;28;20023;-82
2022/03/29 05:10:12;;;;;;;;;;;;;;;21.45;38.28;101236.50;5069566;28;19921;-83
2022/03/29 05:12:38;;;;;;;;;;;;;;;21.44;38.66;101234.88;5053844;28;19925;-82
2022/03/29 05:15:03;;;;;;;;;;;;;;;21.45;38.50;101241.19;5054293;28;19924;-82
2022/03/29 05:17:31;;;;;;;;;;;;;;;21.45;38.50;101232.97;5036941;28;19963;-82
2022/03/29 05:19:56;;;;;;;;;;;;;;;21.43;38.47;101225.00;5036062;28;19964;-82
2022/03/29 05:22:21;;;;;;;;;;;;;;;21.43;38.56;101226.94;5069534;28;20374;-82
2022/03/29 05:24:46;;;;;;;;;;;;;;;21.43;38.49;101227.75;5054358;28;19927;-83
2022/03/29 05:27:12;;;;;;;;;;;;;;;21.43;38.54;101221.44;5036001;28;20020;-83
2022/03/29 05:29:37;;;;;;;;;;;;;;;21.43;38.22;101229.69;5053558;28;19975;-82
2022/03/29 05:32:02;;;;;;;;;;;;;;;21.42;38.29;101226.13;5054431;28;20024;-82
2022/03/29 05:34:28;;;;;;;;;;;;;;;21.42;38.42;101217.06;5054714;28;19929;-83
2022/03/29 05:36:53;;;;;;;;;;;;;;;21.41;38.50;101218.19;5054802;28;19962;-82
2022/03/29 05:39:18;;;;;;;;;;;;;;;21.41;38.49;101226.44;5054184;28;20078;-82
2022/03/29 05:41:44;;;;;;;;;;;;;;;21.39;38.60;101223.97;5053857;28;19948;-81
2022/03/29 05:44:09;;;;;;;;;;;;;;;21.38;38.37;101225.06;5035622;28;19921;-80
2022/03/29 05:49:21;;;;;;;;;;;;;;;21.37;38.71;101207.78;5053763;28;19924;-83
2022/03/29 05:51:47;;;;;;;;;;;;;;;21.37;38.68;101216.03;5054362;28;19988;-84
2022/03/29 05:54:12;;;;;;;;;;;;;;;21.37;38.83;101210.53;5052902;28;19921;-84
2022/03/29 05:56:37;;;;;;;;;;;;;;;21.39;38.66;101207.47;5069477;28;19920;-85
2022/03/29 05:59:02;;;;;;;;;;;;;;;21.38;38.81;101212.16;5053263;28;19921;-86
2022/03/29 06:01:28;;;;;;;;;;;;;;;21.40;39.05;101203.63;5069345;28;20017;-85
2022/03/29 06:03:53;;;;;;;;;;;;;;;21.41;39.06;101204.44;5069758;28;20011;-86
2022/03/29 06:06:18;;;;;;;;;;;;;;;21.41;38.76;101208.00;5035994;28;19946;-85
2022/03/29 06:08:44;;;;;;;;;;;;;;;21.41;38.85;101207.19;5053834;28;19917;-85
2022/03/29 06:11:09;;;;;;;;;;;;;;;21.41;38.98;101205.25;5069217;28;20048;-85
2022/03/29 06:13:35;;;;;;;;;;;;;;;21.41;38.92;101205.25;5053857;28;19920;-84
2022/03/29 06:16:00;;;;;;;;;;;;;;;21.41;38.85;101204.44;5053509;28;19924;-85
2022/03/29 06:18:26;;;;;;;;;;;;;;;21.42;39.05;101211.56;5053460;28;19921;-85
2022/03/29 06:20:51;;;;;;;;;;;;;;;21.41;38.99;101210.75;5035470;28;19924;-84
2022/03/29 06:23:17;;;;;;;;;;;;;;;21.40;39.10;101211.88;5054058;28;19921;-82
2022/03/29 06:25:43;;;;;;;;;;;;;;;21.41;39.05;101215.44;5035461;28;19936;-89
2022/03/29 06:28:10;;;;;;;;;;;;;;;21.41;39.11;101215.44;5053192;28;19921;-83
2022/03/29 06:30:36;;;;;;;;;;;;;;;21.41;38.86;101221.75;5036011;28;19949;-83
2022/03/29 06:33:02;;;;;;;;;;;;;;;21.41;38.98;101218.19;5053991;28;19928;-83
2022/03/29 06:35:28;;;;;;;;;;;;;;;21.40;38.88;101198.13;5068675;28;19932;-82
2022/03/29 06:37:55;;;;;;;;;;;;;;;21.39;39.22;101204.72;5052713;28;19916;-78
2022/03/29 06:40:21;;;;;;;;;;;;;;;21.38;39.19;101200.34;5034884;28;19916;-82
2022/03/29 06:42:47;;;;;;;;;;;;;;;21.38;39.05;101209.41;5055926;28;20423;-80
2022/03/29 06:45:12;;;;;;;;;;;;;;;21.39;39.36;101211.06;5056639;28;19973;-83
2022/03/29 06:47:37;;;;;;;;;;;;;;;21.40;39.30;101203.63;5058014;28;19982;-82
2022/03/29 06:50:04;;;;;;;;;;;;;;;21.41;39.08;101215.44;5039114;28;19932;-79
2022/03/29 06:52:40;;;;;;;;;;;;;;;21.41;39.19;101216.25;5057031;28;20003;-81
2022/03/29 06:55:06;;;;;;;;;;;;;;;21.43;39.48;101218.69;5056353;28;19916;-81
2022/03/29 06:57:31;;;;;;;;;;;;;;;21.43;39.24;101210.47;5056157;28;20380;-80
2022/03/29 06:59:57;;;;;;;;;;;;;;;21.43;39.24;101214.00;5038209;28;19932;-82
2022/03/29 07:02:22;;;;;;;;;;;;;;;21.44;39.44;101220.31;5056396;28;20395;-85
2022/03/29 07:04:48;;;;;;;;;;;;;;;21.45;39.50;101216.47;5056248;28;19957;-85
2022/03/29 07:07:13;;;;;;;;;;;;;;;21.46;39.49;101224.38;5038287;28;19920;-82
2022/03/29 07:12:22;;;;;;;;;;;;;;;21.48;39.38;101235.09;5056399;28;19975;-82
2022/03/29 07:14:48;;;;;;;;;;;;;;;21.49;39.60;101237.50;5037877;28;20042;-82
2022/03/29 07:17:15;;;;;;;;;;;;;;;21.49;39.42;101243.00;5037473;28;20007;-89
2022/03/29 07:19:41;;;;;;;;;;;;;;;21.51;39.44;101249.03;5056044;28;19960;-80
2022/03/29 07:22:06;;;;;;;;;;;;;;;21.52;39.69;101245.19;5038402;28;19921;-85
2022/03/29 07:24:31;;;;;;;;;;;;;;;21.53;39.58;101244.03;5055617;28;19950;-84
2022/03/29 07:26:56;;;;;;;;;;;;;;;21.54;39.40;101245.66;5055781;28;20042;-92
2022/03/29 07:29:22;;;;;;;;;;;;;;;21.53;39.75;101230.31;5055805;28;20393;-83
2022/03/29 07:31:47;;;;;;;;;;;;;;;21.55;39.43;101233.56;5070743;28;20010;-84
2022/03/29 07:34:13;;;;;;;;;;;;;;;21.56;39.35;101231.63;5037638;28;19948;-84
2022/03/29 07:36:38;;;;;;;;;;;;;;;21.57;39.50;101239.56;5054373;28;19920;-83
2022/03/29 07:39:04;;;;;;;;;;;;;;;21.58;39.59;101241.19;5071066;28;19993;-84
2022/03/29 07:41:29;;;;;;;;;;;;;;;21.58;39.36;101235.69;5037487;28;20361;-84
2022/03/29 07:43:54;;;;;;;;;;;;;;;21.61;39.56;101237.03;5070779;28;19921;-87
2022/03/29 07:46:20;;;;;;;;;;;;;;;21.61;39.41;101237.84;5055474;28;19982;-83
2022/03/29 07:48:45;;;;;;;;;;;;;;;21.63;39.39;101233.97;5055485;28;19928;-84
2022/03/29 07:51:11;;;;;;;;;;;;;;;21.64;39.58;101241.09;5070814;28;19951;-83
2022/03/29 07:53:36;;;;;;;;;;;;;;;21.64;39.58;101230.91;5069805;28;19946;-83
2022/03/29 07:56:01;;;;;;;;;;;;;;;21.66;39.32;101233.38;5037294;28;19927;-83
2022/03/29 07:58:27;;;;;;;;;;;;;;;21.67;39.43;101234.97;5055282;28;19967;-84
2022/03/29 08:00:53;;;;;;;;;;;;;;;21.67;39.51;101226.72;5070603;28;20023;-85
2022/03/29 08:03:20;;;;;;;;;;;;;;;21.68;39.58;101223.69;5037969;28;20011;-83
2022/03/29 08:05:47;;;;;;;;;;;;;;;21.68;39.38;101231.94;5071009;28;19927;-83
2022/03/29 08:08:14;;;;;;;;;;;;;;;21.70;39.24;101228.91;5055535;28;20367;-84
2022/03/29 08:10:40;;;;;;;;;;;;;;;21.71;39.16;101227.75;5055580;28;19928;-83
2022/03/29 08:13:10;;;;;;;;;;;;;;;21.72;39.19;101237.63;5036779;28;20271;-83
2022/03/29 08:15:36;;;;;;;;;;;;;;;21.72;39.48;101232.97;5036881;28;19946;-84
2022/03/29 08:18:01;;;;;;;;;;;;;;;21.73;39.39;101228.28;5037156;28;19944;-82
2022/03/29 08:20:27;;;;;;;;;;;;;;;21.73;39.37;101233.78;5054592;28;19916;-83
2022/03/29 08:22:55;;;;;;;;;;;;;;;21.74;39.26;101233.44;5055096;28;20412;-85
2022/03/29 08:25:21;;;;;;;;;;;;;;;21.74;39.25;101221.66;5054562;28;19928;-83
2022/03/29 08:27:48;;;;;;;;;;;;;;;21.74;39.41;101216.94;5054713;28;19916;-84
2022/03/29 08:30:15;;;;;;;;;;;;;;;21.74;39.39;101225.19;5037088;28;19939;-83
2022/03/29 08:32:41;;;;;;;;;;;;;;;21.74;39.40;101224.38;5054651;28;19916;-82
2022/03/29 08:35:08;;;;;;;;;;;;;;;21.74;39.28;101227.13;5054505;28;19923;-82
2022/03/29 08:37:35;;;;;;;;;;;;;;;21.74;39.61;101230.69;5054362;28;19955;-82
2022/03/29 08:40:01;;;;;;;;;;;;;;;21.74;39.53;101229.88;5052652;28;20008;-80
2022/03/29 08:42:26;;;;;;;;;;;;;;;21.73;39.28;101225.53;5036799;28;19921;-81
2022/03/29 08:44:52;;;;;;;;;;;;;;;21.75;39.49;101228.78;5052967;28;19920;-82
2022/03/29 08:47:17;;;;;;;;;;;;;;;21.74;39.47;101230.69;5054242;28;19921;-81
2022/03/29 08:49:43;;;;;;;;;;;;;;;21.75;39.27;101231.53;5054143;28;20019;-83
2022/03/29 08:52:10;;;;;;;;;;;;;;;21.73;39.27;101229.09;5054091;28;20379;-84
2022/03/29 08:54:35;;;;;;;;;;;;;;;21.75;39.48;101226.03;5036075;28;19916;-81
2022/03/29 08:57:00;;;;;;;;;;;;;;;21.74;39.46;101218.91;5053812;28;20401;-79
2022/03/29 08:59:29;;;;;;;;;;;;;;;21.75;39.33;101220.53;5069339;28;19920;-82
2022/03/29 09:01:58;;;;;;;;;;;;;;;21.76;39.45;101213.91;5054562;28;20050;-82
2022/03/29 09:04:24;;;;;;;;;;;;;;;21.76;39.53;101211.97;5036267;28;19917;-83
2022/03/29 09:06:56;;;;;;;;;;;;;;;21.77;39.33;101210.03;5053844;28;20391;-81
2022/03/29 09:09:31;;;;;;;;;;;;;;;21.77;39.26;101210.03;5053808;28;19923;-84
2022/03/29 09:11:57;;;;;;;;;;;;;;;21.78;39.28;101208.91;5036193;28;19917;-87
2022/03/29 09:14:23;;;;;;;;;;;;;;;21.79;39.27;101203.09;5036239;28;20272;-84
2022/03/29 09:16:50;;;;;;;;;;;;;;;21.80;39.54;101198.44;5053739;28;19944;-85
2022/03/29 09:19:15;;;;;;;;;;;;;;;21.81;39.23;101200.06;5053684;28;19971;-83
2022/03/29 09:21:41;;;;;;;;;;;;;;;21.81;39.30;101192.59;5069243;28;20325;-83
2022/03/29 09:24:11;;;;;;;;;;;;;;;21.83;39.25;101198.63;5053739;28;20361;-84
2022/03/29 09:26:37;;;;;;;;;;;;;;;21.83;39.43;101198.63;5036084;28;19917;-86
2022/03/29 09:29:10;;;;;;;;;;;;;;;21.84;39.30;101204.94;5053668;28;19924;-85
2022/03/29 09:31:36;;;;;;;;;;;;;;;21.85;39.41;101203.81;5035730;28;19967;-85
2022/03/29 09:34:10;;;;;;;;;;;;;;;21.87;39.14;101206.25;5053026;28;19963;-83
2022/03/29 09:36:40;;;;;;;;;;;;;;;21.88;39.54;101202.41;5035936;28;19967;-84
2022/03/29 09:39:06;;;;;;;;;;;;;;;21.87;39.14;101198.81;5053382;28;19917;-85
2022/03/29 09:41:32;;;;;;;;;;;;;;;21.88;39.11;101191.41;5053900;28;19917;-83
2022/03/29 09:44:02;;;;;;;;;;;;;;;21.89;39.41;101193.00;5051968;28;19958;-88
2022/03/29 09:46:28;;;;;;;;;;;;;;;21.90;39.08;101189.13;5036307;28;19927;-85
2022/03/29 09:49:00;;;;;;;;;;;;;;;21.90;39.12;101189.97;5053639;28;19917;-84
2022/03/29 09:51:27;;;;;;;;;;;;;;;21.91;39.25;101190.78;5053428;28;20358;-84
2022/03/29 09:53:53;;;;;;;;;;;;;;;21.91;39.09;101180.59;5053379;28;19924;-85
2022/03/29 09:56:24;;;;;;;;;;;;;;;21.93;39.28;101177.53;5054176;28;19917;-85
2022/03/29 09:59:09;;;;;;;;;;;;;;;21.92;39.11;101173.94;5053187;28;19974;-81
2022/03/29 10:01:47;;;;;;;;;;;;;;;21.95;39.45;101172.53;5035235;28;20017;-83
2022/03/29 10:04:13;;;;;;;;;;;;;;;21.95;39.04;101169.78;5053023;28;20376;-83
2022/03/29 10:06:38;;;;;;;;;;;;;;;21.95;39.21;101165.09;5053574;28;20019;-82
2022/03/29 10:11:48;;;;;;;;;;;;;;;21.97;39.05;101168.34;5053593;28;19967;-83
2022/03/29 10:14:15;;;;;;;;;;;;;;;21.97;39.16;101164.78;5036409;28;19917;-85
2022/03/29 10:16:42;;;;;;;;;;;;;;;21.97;39.37;101159.28;5036980;28;19920;-84
2022/03/29 10:19:09;;;;;;;;;;;;;;;21.99;39.02;101155.09;5057218;28;19920;-82
2022/03/29 10:21:34;;;;;;;;;;;;;;;22.00;39.04;101150.41;5057506;28;19917;-86
2022/03/29 10:24:00;;;;;;;;;;;;;;;22.01;39.03;101152.84;5057722;28;20004;-88
2022/03/29 10:26:26;;;;;;;;;;;;;;;22.01;39.03;101147.34;5057423;28;19957;-83
2022/03/29 10:28:52;;;;;;;;;;;;;;;22.02;39.04;101154.50;5057400;28;19921;-83
2022/03/29 10:31:26;;;;;;;;;;;;;;;22.03;39.13;101149.78;5056726;28;19923;-82
2022/03/29 10:34:12;;;;;;;;;;;;;;;22.03;39.04;101150.59;5057353;28;19992;-82
2022/03/29 10:36:56;;;;;;;;;;;;;;;22.04;39.00;101152.22;5027913;28;20392;-86
2022/03/29 10:39:24;;;;;;;;;;;;;;;22.04;39.37;101160.47;5057118;28;20004;-84
2022/03/29 10:41:50;;;;;;;;;;;;;;;22.04;39.27;101154.97;5073287;28;19927;-88
2022/03/29 10:44:15;;;;;;;;;;;;;;;22.04;39.12;101154.97;5057967;28;20007;-90
2022/03/29 10:46:46;;;;;;;;;;;;;;;22.06;39.06;101162.13;5057520;28;19956;-86
2022/03/29 10:49:24;;;;;;;;;;;;;;;22.07;39.32;101158.22;5039145;28;20304;-88
2022/03/29 10:51:51;;;;;;;;;;;;;;;22.07;39.06;101155.47;5057218;28;20019;-90
2022/03/29 10:54:30;;;;;;;;;;;;;;;22.07;39.08;101149.97;5057327;28;19917;-91
2022/03/29 10:56:57;;;;;;;;;;;;;;;22.06;39.06;101143.66;5056503;28;20390;-90
2022/03/29 10:59:22;;;;;;;;;;;;;;;22.05;39.42;101136.56;5039311;28;19932;-85
2022/03/29 11:02:06;;;;;;;;;;;;;;;22.06;39.05;101140.09;5039392;28;19925;-87
2022/03/29 11:04:31;;;;;;;;;;;;;;;22.06;39.39;101131.84;5057156;28;20281;-90
2022/03/29 11:07:06;;;;;;;;;;;;;;;22.06;39.32;101131.84;5056467;28;19921;-88
2022/03/29 11:09:31;;;;;;;;;;;;;;;22.05;39.13;101125.53;5039093;28;19916;-89
2022/03/29 11:11:56;;;;;;;;;;;;;;;22.06;39.13;101120.84;5072125;28;19928;-89
2022/03/29 11:14:28;;;;;;;;;;;;;;;22.06;39.50;101123.59;5056798;28;20370;-87
2022/03/29 11:17:13;;;;;;;;;;;;;;;22.04;39.16;101110.97;5038674;28;20051;-90
2022/03/29 11:19:44;;;;;;;;;;;;;;;22.06;39.28;101107.91;5045256;28;19921;-90
2022/03/29 11:22:21;;;;;;;;;;;;;;;22.07;39.19;101106.78;5056590;28;19954;-90
2022/03/29 11:24:48;;;;;;;;;;;;;;;22.07;39.12;101103.22;5056568;28;19924;-89
2022/03/29 11:27:20;;;;;;;;;;;;;;;22.07;39.47;101111.47;5056398;28;19962;-81
2022/03/29 11:29:45;;;;;;;;;;;;;;;22.07;39.12;101103.22;5055458;28;19924;-82
2022/03/29 11:32:14;;;;;;;;;;;;;;;22.06;39.26;101094.16;5037707;28;19921;-82
2022/03/29 11:34:40;;;;;;;;;;;;;;;22.07;39.49;101106.78;5056481;28;20001;-81
2022/03/29 11:37:06;;;;;;;;;;;;;;;22.08;39.51;101102.09;5055650;28;19920;-81
2022/03/29 11:39:31;;;;;;;;;;;;;;;22.09;39.40;101098.22;5037371;28;19967;-81
2022/03/29 11:41:56;;;;;;;;;;;;;;;22.09;39.21;101096.28;5055360;28;19975;-83
2022/03/29 11:44:23;;;;;;;;;;;;;;;22.09;39.48;101088.03;5055916;28;19924;-85
2022/03/29 11:46:50;;;;;;;;;;;;;;;22.10;39.42;101086.06;5055183;28;19924;-84
2022/03/29 11:49:21;;;;;;;;;;;;;;;22.11;39.10;101084.97;5055116;28;20365;-84
2022/03/29 11:52:06;;;;;;;;;;;;;;;22.10;39.54;101072.31;5055378;28;19955;-88
2022/03/29 11:54:37;;;;;;;;;;;;;;;22.11;39.24;101065.72;5055781;28;19963;-86
2022/03/29 11:57:12;;;;;;;;;;;;;;;22.11;39.48;101071.22;5037922;28;19917;-87
2022/03/29 11:59:37;;;;;;;;;;;;;;;22.12;39.34;101075.56;5037742;28;19920;-85
2022/03/29 12:02:04;;;;;;;;;;;;;;;22.12;39.21;101061.81;5070585;28;19986;-85
2022/03/29 12:04:32;;;;;;;;;;;;;;;22.13;39.42;101063.47;5055200;28;19940;-85
2022/03/29 12:06:57;;;;;;;;;;;;;;;22.12;39.35;101067.31;5037470;28;20249;-84
2022/03/29 12:09:23;;;;;;;;;;;;;;;22.13;39.22;101056.00;5070219;28;19927;-83
2022/03/29 12:11:48;;;;;;;;;;;;;;;22.13;39.14;101058.78;5037668;28;19944;-85
2022/03/29 12:14:14;;;;;;;;;;;;;;;22.13;39.33;101052.47;5054921;28;20351;-86
2022/03/29 12:16:43;;;;;;;;;;;;;;;22.14;39.14;101046.63;5054935;28;20038;-82
2022/03/29 12:19:10;;;;;;;;;;;;;;;22.15;39.18;101047.44;5055762;28;19949;-84
2022/03/29 12:21:36;;;;;;;;;;;;;;;22.15;39.21;101039.19;5054538;28;20469;-83
2022/03/29 12:24:11;;;;;;;;;;;;;;;22.16;39.17;101043.56;5054764;28;20002;-82
2022/03/29 12:26:42;;;;;;;;;;;;;;;22.15;39.52;101028.19;5054648;28;19917;-82
2022/03/29 12:29:09;;;;;;;;;;;;;;;22.16;39.35;101029.81;5054316;28;19917;-81
2022/03/29 12:31:36;;;;;;;;;;;;;;;22.15;39.48;101028.19;5054781;28;19959;-83
2022/03/29 12:34:01;;;;;;;;;;;;;;;22.16;39.52;101019.63;5036229;28;20291;-83
2022/03/29 12:36:26;;;;;;;;;;;;;;;22.18;39.16;101016.56;5070320;28;20420;-85
2022/03/29 12:38:53;;;;;;;;;;;;;;;22.18;39.48;101013.81;5069972;28;19936;-86
2022/03/29 12:41:41;;;;;;;;;;;;;;;22.18;39.25;101008.31;5054490;28;19921;-85
2022/03/29 12:44:10;;;;;;;;;;;;;;;22.19;39.47;101009.91;5054333;28;19923;-84